Burlington, WA

9:58 PM PST on December 07, 2016 (GMT -0800)
Burlington Hill | | Change Station
Active Advisory: Winter Weather Advisory Active Notice: Public Information Statement

Elev 246 ft 48.48 °N, 122.32 °W | Updated 17 seconds ago

Scattered Clouds
Scattered Clouds
26.6 °F
Feels Like 20 °F
N
6.0
Wind Variable Wind from ESE

Today
High -- | Low -- °F
--% Chance of Precip.
Yesterday
High -- | Low -- °F
Precip. -- in
Pressure 30.40 in
Visibility 10.0 miles
Clouds Scattered Clouds 25000 ft
Windchill 20 °F
Dew Point 16 °F
Humidity 65%
Rainfall 0.00 in
Snow Depth Not available.
7:47 AM 4:14 PM
First Quarter, 60% visible
METAR KNUW 080456Z 06009KT 10SM SCT250 M01/M10 A3040 RMK AO2 SLP295 T10111100 $
Pressure 30.40 in
Visibility 10.0 miles
Clouds Scattered Clouds 25000 ft
Windchill 20 °F
Dew Point 16 °F
Humidity 65%
Rainfall 0.00 in
Snow Depth Not available.
7:47 AM 4:14 PM
First Quarter, 60% visible
METAR KNUW 080456Z 06009KT 10SM SCT250 M01/M10 A3040 RMK AO2 SLP295 T10111100 $

10-Day Weather Forecast

Almanac

Astronomy

Dec. 07, 2016 Rise Set
Actual Time
Civil Twilight
Nautical Twilight
Astronomical Twilight
Moon
Length of Visible Light
Length of Day
Tomorrow will be .
, % of the Moon is Illuminated

Today's Extremes

State Highs State Lows

Community

WunderPhotos

Upload Photos

1,956,259 photos uploaded!

WunderBlog® & News

Nearby

Air Quality

  Air Quality AQ Index Pollutant
Not available.

Snow Depth

Station Depth Elevation

Earthquake Activity

City Distance Mag. Time & Date
Minimum magnitude displayed is 2.5.

Coastal Water Temperatures

Place Temperature

Stations

Nearby Weather Stations

Station Location Temp. Windchill Dew Point Humidity Wind Precip. Elev Updated Type
                   

Watches & Warnings

Winter Weather Advisory
Issued: 3:02 PM PST Dec. 7, 2016 – National Weather Service

... Winter Weather Advisory in effect from 4 PM Thursday to 8 am PST
Friday...

The National Weather Service in Seattle has issued a Winter Weather
Advisory for snow... which is in effect from 4 PM Thursday to 8 am
PST Friday. The Winter Storm Watch is no longer in effect.

* Timing... a weather system will move from south to north through
western Washington Thursday night. With cold air in place snow
will fall and snow accumulation of 1 to 3 inches is expected
across most of The Lowlands. The snow should change to rain
before daybreak Friday.

* Main impact... travel will affected as roadway surface
conditions may become slippery.

Precautionary/preparedness actions...

People planning on travel late Thursday afternoon and night should
expect winter driving conditons.